createdAt,value
2023-05-14T00:00:51.396Z,100.00
2023-05-14T00:03:18.204Z,100.00
2023-05-14T00:05:44.804Z,100.00
2023-05-14T00:08:11.354Z,100.00
2023-05-14T00:10:37.910Z,100.00
2023-05-14T00:13:04.433Z,100.00
2023-05-14T00:15:32.895Z,100.00
2023-05-14T00:18:00.809Z,100.00
2023-05-14T00:20:27.431Z,100.00
2023-05-14T00:22:53.931Z,100.00
2023-05-14T00:25:20.474Z,100.00
2023-05-14T00:27:47.023Z,100.00
2023-05-14T00:30:13.744Z,100.00
2023-05-14T00:32:40.399Z,100.00
2023-05-14T00:35:07.145Z,100.00
2023-05-14T00:37:33.684Z,100.00
2023-05-14T00:40:00.352Z,100.00
2023-05-14T00:42:27.261Z,100.00
2023-05-14T00:44:53.852Z,100.00
2023-05-14T00:47:21.185Z,100.00
2023-05-14T00:49:47.892Z,100.00
2023-05-14T00:52:16.570Z,100.00
2023-05-14T00:54:43.239Z,100.00
2023-05-14T00:57:09.916Z,100.00
2023-05-14T00:59:36.543Z,100.00
2023-05-14T01:02:03.268Z,100.00
2023-05-14T01:04:30.074Z,100.00
2023-05-14T01:07:11.904Z,100.00
2023-05-14T01:10:13.057Z,100.00
2023-05-14T01:13:13.145Z,100.00
2023-05-14T01:15:40.037Z,100.00
2023-05-14T01:18:10.045Z,100.00
2023-05-14T01:20:36.844Z,100.00
2023-05-14T01:23:03.919Z,100.00
2023-05-14T01:25:31.700Z,100.00
2023-05-14T01:28:06.693Z,100.00
2023-05-14T01:30:40.229Z,100.00
2023-05-14T01:33:13.318Z,100.00
2023-05-14T01:35:41.274Z,100.00
2023-05-14T01:38:11.374Z,100.00
2023-05-14T01:40:38.578Z,100.00
2023-05-14T01:43:05.855Z,100.00
2023-05-14T01:45:35.921Z,100.00
2023-05-14T01:48:02.678Z,100.00
2023-05-14T01:50:29.401Z,100.00
2023-05-14T01:52:56.870Z,100.00
2023-05-14T01:55:24.642Z,100.00
2023-05-14T01:57:51.954Z,100.00
2023-05-14T02:00:19.037Z,100.00
2023-05-14T02:02:45.605Z,100.00
2023-05-14T02:05:13.171Z,100.00
2023-05-14T02:07:39.854Z,100.00
2023-05-14T02:10:07.182Z,100.00
2023-05-14T02:12:33.961Z,100.00
2023-05-14T02:15:00.564Z,100.00
2023-05-14T02:17:27.308Z,100.00
2023-05-14T02:19:53.849Z,100.00
2023-05-14T02:22:20.420Z,100.00
2023-05-14T02:24:47.060Z,100.00
2023-05-14T02:27:13.665Z,100.00
2023-05-14T02:29:40.208Z,100.00
2023-05-14T02:32:07.221Z,100.00
2023-05-14T02:34:34.553Z,100.00
2023-05-14T02:37:01.254Z,100.00
2023-05-14T02:39:28.000Z,100.00
2023-05-14T02:41:54.826Z,100.00
2023-05-14T02:44:21.404Z,100.00
2023-05-14T02:46:48.169Z,100.00
2023-05-14T02:49:14.863Z,100.00
2023-05-14T02:51:41.459Z,100.00
2023-05-14T02:54:08.175Z,100.00
2023-05-14T02:56:34.743Z,100.00
2023-05-14T02:59:01.289Z,100.00
2023-05-14T03:01:28.281Z,100.00
2023-05-14T03:03:55.515Z,100.00
2023-05-14T03:06:22.262Z,100.00
2023-05-14T03:08:48.866Z,100.00
2023-05-14T03:11:15.473Z,100.00
2023-05-14T03:13:42.069Z,100.00
2023-05-14T03:16:08.641Z,100.00
2023-05-14T03:18:36.848Z,100.00
2023-05-14T03:21:04.056Z,100.00
2023-05-14T03:23:32.121Z,100.00
2023-05-14T03:25:58.934Z,100.00
2023-05-14T03:28:26.077Z,100.00
2023-05-14T03:30:52.800Z,100.00
2023-05-14T03:33:19.743Z,100.00
2023-05-14T03:35:46.321Z,100.00
2023-05-14T03:38:12.847Z,100.00
2023-05-14T03:40:39.506Z,100.00
2023-05-14T03:43:06.235Z,100.00
2023-05-14T03:45:33.337Z,100.00
2023-05-14T03:48:00.051Z,100.00
2023-05-14T03:50:27.029Z,100.00
2023-05-14T03:52:53.674Z,100.00
2023-05-14T03:55:20.514Z,100.00
2023-05-14T03:57:48.676Z,100.00
2023-05-14T04:00:15.804Z,100.00
2023-05-14T04:02:42.663Z,100.00
2023-05-14T04:05:09.657Z,100.00
2023-05-14T04:07:36.612Z,100.00
2023-05-14T04:10:04.727Z,100.00
2023-05-14T04:12:31.582Z,100.00
2023-05-14T04:14:58.814Z,100.00
2023-05-14T04:17:25.951Z,100.00
2023-05-14T04:19:53.193Z,100.00
2023-05-14T04:22:19.888Z,100.00
2023-05-14T04:24:46.540Z,100.00
2023-05-14T04:27:20.187Z,100.00
2023-05-14T04:29:47.316Z,100.00
2023-05-14T04:32:14.874Z,100.00
2023-05-14T04:34:41.554Z,100.00
2023-05-14T04:37:08.257Z,100.00
2023-05-14T04:39:34.869Z,100.00
2023-05-14T04:42:01.465Z,100.00
2023-05-14T04:44:28.163Z,100.00
2023-05-14T04:46:55.516Z,100.00
2023-05-14T04:49:22.190Z,100.00
2023-05-14T04:51:49.506Z,100.00
2023-05-14T04:54:16.222Z,100.00
2023-05-14T04:56:42.827Z,100.00
2023-05-14T04:59:09.401Z,100.00
2023-05-14T05:01:36.354Z,100.00
2023-05-14T05:04:03.081Z,100.00
2023-05-14T05:06:29.968Z,100.00
2023-05-14T05:08:56.501Z,100.00
2023-05-14T05:11:23.213Z,100.00
2023-05-14T05:13:50.800Z,100.00
2023-05-14T05:16:17.577Z,100.00
2023-05-14T05:18:45.776Z,100.00
2023-05-14T05:21:12.474Z,100.00
2023-05-14T05:23:39.138Z,100.00
2023-05-14T05:26:05.988Z,100.00
2023-05-14T05:28:32.558Z,100.00
2023-05-14T05:30:59.262Z,100.00
2023-05-14T05:33:25.881Z,100.00
2023-05-14T05:35:52.581Z,100.00
2023-05-14T05:38:19.337Z,100.00
2023-05-14T05:40:46.107Z,100.00
2023-05-14T05:43:13.986Z,100.00
2023-05-14T05:45:41.059Z,100.00
2023-05-14T05:48:07.961Z,100.00
2023-05-14T05:50:34.649Z,100.00
2023-05-14T05:53:01.303Z,100.00
2023-05-14T05:55:28.967Z,100.00
2023-05-14T05:57:56.017Z,100.00
2023-05-14T06:00:23.255Z,100.00
2023-05-14T06:02:50.111Z,100.00
2023-05-14T06:05:16.833Z,100.00
2023-05-14T06:07:43.427Z,100.00
2023-05-14T06:10:10.230Z,100.00
2023-05-14T06:12:36.882Z,100.00
2023-05-14T06:15:03.858Z,99.33
2023-05-14T06:17:30.615Z,93.64
2023-05-14T06:19:57.218Z,91.13
2023-05-14T06:22:23.752Z,87.85
2023-05-14T06:24:50.469Z,85.63
2023-05-14T06:27:17.113Z,84.78
2023-05-14T06:29:43.798Z,84.22
2023-05-14T06:32:10.671Z,84.83
2023-05-14T06:34:37.461Z,86.84
2023-05-14T06:37:04.321Z,86.25
2023-05-14T06:39:31.051Z,83.88
2023-05-14T06:41:57.580Z,82.94
2023-05-14T06:44:24.314Z,83.20
2023-05-14T06:46:50.994Z,82.27
2023-05-14T06:49:18.165Z,80.60
2023-05-14T06:51:45.114Z,79.90
2023-05-14T06:54:11.834Z,80.06
2023-05-14T06:56:38.594Z,76.66
2023-05-14T06:59:05.278Z,74.54
2023-05-14T07:01:31.876Z,71.80
2023-05-14T07:03:58.544Z,67.22
2023-05-14T07:06:25.117Z,65.50
2023-05-14T07:08:51.773Z,64.25
2023-05-14T07:11:18.346Z,65.17
2023-05-14T07:13:44.915Z,65.27
2023-05-14T07:16:11.544Z,67.73
2023-05-14T07:18:38.441Z,67.01
2023-05-14T07:21:09.008Z,68.32
2023-05-14T07:23:38.532Z,67.34
2023-05-14T07:26:07.978Z,66.35
2023-05-14T07:28:35.096Z,66.65
2023-05-14T07:31:02.287Z,65.11
2023-05-14T07:33:28.940Z,65.86
2023-05-14T07:35:55.553Z,66.15
2023-05-14T07:38:22.386Z,66.32
2023-05-14T07:40:48.962Z,65.71
2023-05-14T07:43:15.591Z,64.71
2023-05-14T07:45:42.298Z,63.89
2023-05-14T07:48:09.008Z,64.52
2023-05-14T07:50:35.884Z,63.66
2023-05-14T07:53:02.538Z,64.57
2023-05-14T07:55:29.249Z,63.96
2023-05-14T07:57:56.258Z,63.53
2023-05-14T08:00:23.170Z,64.46
2023-05-14T08:02:50.481Z,63.69
2023-05-14T08:05:18.086Z,61.86
2023-05-14T08:07:44.840Z,60.96
2023-05-14T08:10:11.763Z,59.33
2023-05-14T08:12:39.150Z,59.49
2023-05-14T08:15:07.904Z,61.60
2023-05-14T08:17:34.541Z,61.78
2023-05-14T08:20:01.695Z,62.36
2023-05-14T08:22:28.399Z,60.11
2023-05-14T08:24:55.080Z,59.92
2023-05-14T08:27:21.749Z,60.06
2023-05-14T08:29:48.577Z,58.93
2023-05-14T08:32:22.790Z,57.97
2023-05-14T08:34:51.972Z,57.77
2023-05-14T08:37:18.905Z,59.50
2023-05-14T08:39:45.498Z,60.38
2023-05-14T08:42:13.895Z,59.22
2023-05-14T08:44:49.129Z,58.13
2023-05-14T08:47:18.122Z,59.17
2023-05-14T08:49:47.799Z,59.34
2023-05-14T08:52:16.483Z,59.01
2023-05-14T08:54:43.545Z,61.03
2023-05-14T08:57:10.770Z,60.99
2023-05-14T08:59:38.171Z,59.54
2023-05-14T09:02:06.924Z,58.93
2023-05-14T09:04:34.754Z,57.33
2023-05-14T09:07:02.852Z,58.62
2023-05-14T09:09:29.953Z,58.12
2023-05-14T09:11:56.566Z,56.11
2023-05-14T09:14:24.192Z,57.08
2023-05-14T09:16:51.653Z,56.58
2023-05-14T09:19:19.897Z,58.04
2023-05-14T09:21:48.229Z,57.54
2023-05-14T09:24:25.507Z,55.83
2023-05-14T09:26:54.525Z,55.45
2023-05-14T09:29:21.172Z,54.45
2023-05-14T09:31:50.767Z,54.55
2023-05-14T09:34:28.162Z,55.18
2023-05-14T09:36:59.945Z,55.68
2023-05-14T09:39:27.572Z,55.89
2023-05-14T09:41:55.411Z,57.94
2023-05-14T09:44:23.214Z,59.12
2023-05-14T09:46:51.015Z,59.05
2023-05-14T09:49:18.127Z,60.19
2023-05-14T09:51:45.061Z,58.59
2023-05-14T09:54:11.620Z,58.94
2023-05-14T09:56:39.715Z,58.45
2023-05-14T09:59:06.596Z,57.85
2023-05-14T10:01:33.679Z,57.97
2023-05-14T10:04:01.882Z,59.27
2023-05-14T10:06:33.344Z,60.17
2023-05-14T10:09:10.180Z,62.35
2023-05-14T10:11:39.091Z,62.27
2023-05-14T10:14:20.859Z,62.69
2023-05-14T10:16:50.575Z,63.86
2023-05-14T10:19:18.947Z,63.94
2023-05-14T10:21:49.410Z,62.88
2023-05-14T10:24:16.423Z,60.93
2023-05-14T10:26:43.402Z,57.98
2023-05-14T10:29:10.449Z,55.54
2023-05-14T10:31:49.813Z,57.37
2023-05-14T10:34:40.777Z,54.43
2023-05-14T10:37:12.664Z,55.56
2023-05-14T10:39:59.148Z,58.38
2023-05-14T10:42:40.538Z,60.14
2023-05-14T10:45:09.313Z,60.44
2023-05-14T10:47:37.893Z,58.97
2023-05-14T10:50:07.232Z,55.90
2023-05-14T10:52:35.291Z,55.28
2023-05-14T10:55:04.261Z,52.90
2023-05-14T10:57:32.437Z,53.45
2023-05-14T11:00:01.854Z,54.65
2023-05-14T11:02:39.513Z,55.81
2023-05-14T11:05:09.215Z,57.43
2023-05-14T11:07:41.532Z,57.75
2023-05-14T11:10:10.099Z,54.85
2023-05-14T11:12:39.671Z,52.72
2023-05-14T11:15:20.693Z,52.76
2023-05-14T11:17:48.729Z,54.67
2023-05-14T11:20:16.857Z,56.21
2023-05-14T11:22:44.914Z,56.23
2023-05-14T11:25:15.149Z,57.45
2023-05-14T11:27:44.074Z,58.13
2023-05-14T11:30:19.338Z,58.48
2023-05-14T11:32:47.568Z,55.43
2023-05-14T11:35:15.628Z,52.62
2023-05-14T11:37:42.952Z,52.77
2023-05-14T11:40:19.191Z,53.68
2023-05-14T11:42:46.093Z,54.44
2023-05-14T11:45:14.136Z,54.93
2023-05-14T11:47:42.053Z,55.33
2023-05-14T11:50:09.728Z,56.19
2023-05-14T11:52:41.480Z,56.20
2023-05-14T11:55:12.691Z,56.30
2023-05-14T11:57:39.749Z,59.37
2023-05-14T12:00:09.401Z,57.35
2023-05-14T12:02:36.580Z,57.54
2023-05-14T12:05:03.578Z,55.10
2023-05-14T12:07:30.917Z,52.66
2023-05-14T12:10:01.581Z,52.37
2023-05-14T12:12:28.202Z,50.75
2023-05-14T12:14:54.738Z,51.76
2023-05-14T12:17:23.094Z,54.28
2023-05-14T12:19:51.957Z,55.15
2023-05-14T12:22:20.777Z,55.71
2023-05-14T12:24:54.855Z,55.93
2023-05-14T12:27:26.417Z,55.68
2023-05-14T12:30:12.870Z,54.39
2023-05-14T12:32:42.968Z,54.68
2023-05-14T12:35:10.321Z,53.12
2023-05-14T12:37:37.773Z,54.08
2023-05-14T12:40:09.369Z,55.75
2023-05-14T12:42:36.639Z,55.56
2023-05-14T12:45:07.480Z,53.75
2023-05-14T12:47:34.227Z,53.42
2023-05-14T12:50:01.110Z,53.29
2023-05-14T12:52:37.842Z,52.92
2023-05-14T12:55:09.955Z,55.78
2023-05-14T12:57:39.080Z,55.32
2023-05-14T13:00:07.953Z,54.61
2023-05-14T13:02:42.955Z,55.69
2023-05-14T13:05:11.305Z,55.37
2023-05-14T13:07:38.463Z,56.88
2023-05-14T13:10:06.115Z,58.22
2023-05-14T13:12:33.177Z,56.97
2023-05-14T13:14:59.907Z,56.91
2023-05-14T13:17:26.892Z,55.32
2023-05-14T13:19:53.658Z,57.18
2023-05-14T13:22:20.227Z,56.83
2023-05-14T13:24:46.950Z,56.08
2023-05-14T13:27:13.506Z,56.48
2023-05-14T13:29:40.353Z,58.15
2023-05-14T13:32:07.559Z,57.15
2023-05-14T13:34:36.033Z,57.35
2023-05-14T13:37:02.734Z,56.79
2023-05-14T13:39:37.678Z,57.43
2023-05-14T13:42:09.423Z,56.09
2023-05-14T13:44:37.111Z,55.88
2023-05-14T13:47:10.574Z,54.71
2023-05-14T13:49:39.117Z,55.82
2023-05-14T13:52:06.788Z,55.69
2023-05-14T13:54:33.461Z,55.07
2023-05-14T13:57:00.485Z,55.40
2023-05-14T13:59:28.130Z,55.58
2023-05-14T14:01:54.971Z,55.73
2023-05-14T14:04:22.386Z,54.47
2023-05-14T14:06:49.517Z,55.03
2023-05-14T14:09:19.793Z,55.50
2023-05-14T14:11:46.917Z,55.11
2023-05-14T14:14:16.136Z,56.49
2023-05-14T14:16:43.024Z,55.89
2023-05-14T14:19:10.073Z,55.91
2023-05-14T14:21:39.819Z,55.42
2023-05-14T14:24:06.982Z,54.80
2023-05-14T14:26:34.155Z,54.98
2023-05-14T14:29:01.032Z,54.84
2023-05-14T14:31:27.873Z,55.30
2023-05-14T14:33:54.591Z,55.28
2023-05-14T14:36:21.189Z,55.90
2023-05-14T14:38:48.022Z,56.17
2023-05-14T14:41:14.645Z,55.63
2023-05-14T14:43:41.786Z,56.65
2023-05-14T14:46:11.386Z,56.94
2023-05-14T14:48:38.720Z,57.92
2023-05-14T14:51:09.215Z,60.09
2023-05-14T14:53:37.353Z,58.10
2023-05-14T14:56:04.797Z,57.81
2023-05-14T14:58:31.670Z,57.02
2023-05-14T15:00:58.787Z,58.61
2023-05-14T15:03:26.003Z,59.45
2023-05-14T15:05:54.062Z,59.56
2023-05-14T15:08:35.577Z,59.98
2023-05-14T15:11:02.602Z,60.74
2023-05-14T15:13:29.720Z,60.35
2023-05-14T15:15:56.904Z,61.90
2023-05-14T15:18:23.645Z,61.64
2023-05-14T15:20:50.880Z,61.46
2023-05-14T15:23:17.776Z,62.32
2023-05-14T15:25:45.621Z,63.04
2023-05-14T15:28:12.426Z,63.34
2023-05-14T15:30:39.096Z,63.39
2023-05-14T15:33:08.973Z,65.56
2023-05-14T15:35:39.181Z,65.96
2023-05-14T15:38:07.148Z,65.04
2023-05-14T15:40:35.376Z,64.43
2023-05-14T15:43:02.379Z,65.15
2023-05-14T15:45:31.564Z,66.93
2023-05-14T15:47:58.359Z,65.24
2023-05-14T15:50:26.749Z,66.15
2023-05-14T15:52:53.900Z,65.85
2023-05-14T15:55:20.983Z,64.99
2023-05-14T15:57:47.897Z,65.33
2023-05-14T16:00:14.955Z,65.03
2023-05-14T16:02:41.588Z,62.55
2023-05-14T16:05:08.762Z,63.23
2023-05-14T16:07:36.202Z,63.03
2023-05-14T16:10:03.615Z,63.76
2023-05-14T16:12:30.541Z,63.68
2023-05-14T16:14:57.742Z,64.80
2023-05-14T16:17:24.714Z,64.81
2023-05-14T16:19:52.886Z,65.93
2023-05-14T16:22:21.316Z,66.60
2023-05-14T16:24:47.954Z,66.81
2023-05-14T16:27:14.656Z,66.72
2023-05-14T16:29:41.249Z,67.68
2023-05-14T16:32:08.038Z,67.38
2023-05-14T16:34:34.640Z,67.68
2023-05-14T16:37:01.628Z,67.90
2023-05-14T16:39:28.309Z,68.00
2023-05-14T16:41:55.099Z,69.07
2023-05-14T16:44:21.727Z,69.04
2023-05-14T16:46:48.690Z,69.73
2023-05-14T16:49:15.452Z,70.61
2023-05-14T16:51:43.988Z,71.19
2023-05-14T16:54:10.725Z,71.87
2023-05-14T16:56:37.393Z,72.10
2023-05-14T16:59:04.044Z,72.65
2023-05-14T17:01:31.009Z,72.96
2023-05-14T17:03:57.675Z,73.02
2023-05-14T17:06:24.476Z,73.21
2023-05-14T17:08:51.283Z,72.15
2023-05-14T17:11:17.976Z,72.63
2023-05-14T17:13:44.550Z,72.19
2023-05-14T17:16:11.694Z,71.61
2023-05-14T17:18:38.445Z,71.74
2023-05-14T17:21:06.057Z,72.60
2023-05-14T17:23:32.631Z,72.67
2023-05-14T17:25:59.381Z,71.72
2023-05-14T17:28:27.071Z,71.64
2023-05-14T17:30:53.706Z,71.89
2023-05-14T17:33:21.013Z,72.77
2023-05-14T17:35:48.093Z,73.27
2023-05-14T17:38:15.133Z,73.53
2023-05-14T17:40:41.811Z,73.46
2023-05-14T17:43:20.968Z,73.89
2023-05-14T17:48:23.106Z,74.63
2023-05-14T17:50:51.974Z,75.13
2023-05-14T17:53:18.783Z,75.95
2023-05-14T17:55:45.619Z,75.35
2023-05-14T17:58:14.480Z,76.66
2023-05-14T18:00:41.635Z,77.21
2023-05-14T18:03:08.387Z,77.74
2023-05-14T18:05:35.644Z,77.64
2023-05-14T18:08:02.404Z,77.90
2023-05-14T18:10:31.886Z,79.32
2023-05-14T18:13:02.717Z,79.86
2023-05-14T18:15:35.309Z,80.85
2023-05-14T18:18:02.487Z,80.89
2023-05-14T18:20:33.514Z,81.38
2023-05-14T18:23:02.608Z,80.82
2023-05-14T18:25:31.654Z,80.85
2023-05-14T18:27:58.473Z,80.74
2023-05-14T18:30:25.061Z,80.72
2023-05-14T18:32:52.176Z,80.96
2023-05-14T18:35:18.978Z,80.73
2023-05-14T18:37:46.206Z,81.70
2023-05-14T18:40:16.880Z,82.31
2023-05-14T18:42:45.114Z,83.51
2023-05-14T18:45:13.824Z,83.69
2023-05-14T18:47:41.157Z,84.40
2023-05-14T18:50:11.243Z,84.65
2023-05-14T18:52:38.347Z,84.46
2023-05-14T18:55:05.730Z,85.26
2023-05-14T18:57:32.980Z,85.78
2023-05-14T19:00:03.212Z,85.99
2023-05-14T19:02:30.320Z,87.28
2023-05-14T19:04:57.299Z,87.15
2023-05-14T19:07:23.992Z,87.08
2023-05-14T19:09:50.711Z,87.05
2023-05-14T19:12:17.343Z,87.05
2023-05-14T19:14:44.108Z,87.75
2023-05-14T19:17:11.157Z,88.32
2023-05-14T19:19:39.424Z,88.93
2023-05-14T19:22:06.492Z,89.02
2023-05-14T19:24:33.164Z,88.11
2023-05-14T19:26:59.766Z,88.55
2023-05-14T19:29:26.528Z,88.67
2023-05-14T19:31:53.210Z,88.75
2023-05-14T19:34:20.082Z,89.63
2023-05-14T19:36:46.725Z,90.33
2023-05-14T19:39:13.520Z,90.36
2023-05-14T19:41:40.124Z,90.55
2023-05-14T19:44:06.850Z,90.79
2023-05-14T19:46:33.939Z,91.08
2023-05-14T19:49:00.821Z,91.38
2023-05-14T19:51:27.590Z,92.07
2023-05-14T19:53:54.146Z,93.55
2023-05-14T19:56:21.698Z,94.00
2023-05-14T19:58:48.290Z,94.65
2023-05-14T20:01:15.213Z,95.08
2023-05-14T20:03:41.972Z,96.01
2023-05-14T20:06:08.577Z,97.36
2023-05-14T20:08:35.236Z,97.48
2023-05-14T20:11:02.060Z,97.04
2023-05-14T20:13:31.836Z,98.25
2023-05-14T20:15:59.336Z,98.90
2023-05-14T20:18:25.972Z,99.06
2023-05-14T20:20:52.786Z,98.43
2023-05-14T20:23:20.697Z,98.05
2023-05-14T20:25:47.918Z,97.83
2023-05-14T20:28:14.611Z,97.97
2023-05-14T20:30:41.324Z,97.37
2023-05-14T20:33:08.426Z,98.01
2023-05-14T20:35:35.105Z,99.12
2023-05-14T20:38:03.639Z,99.85
2023-05-14T20:40:31.089Z,100.00
2023-05-14T20:42:57.678Z,100.00
2023-05-14T20:45:24.592Z,100.00
2023-05-14T20:47:51.309Z,100.00
2023-05-14T20:50:17.919Z,100.00
2023-05-14T20:52:44.487Z,100.00
2023-05-14T20:55:11.073Z,100.00
2023-05-14T20:57:37.784Z,100.00
2023-05-14T21:00:08.216Z,100.00
2023-05-14T21:02:35.152Z,100.00
2023-05-14T21:05:02.356Z,100.00
2023-05-14T21:07:29.111Z,100.00
2023-05-14T21:09:55.767Z,100.00
2023-05-14T21:12:22.833Z,100.00
2023-05-14T21:14:49.378Z,100.00
2023-05-14T21:17:15.930Z,100.00
2023-05-14T21:19:42.485Z,100.00
2023-05-14T21:22:09.060Z,100.00
2023-05-14T21:24:35.754Z,100.00
2023-05-14T21:27:02.335Z,100.00
2023-05-14T21:29:28.931Z,100.00
2023-05-14T21:31:56.089Z,100.00
2023-05-14T21:34:22.627Z,100.00
2023-05-14T21:36:49.322Z,100.00
2023-05-14T21:39:16.005Z,100.00
2023-05-14T21:41:42.568Z,100.00
2023-05-14T21:44:09.077Z,100.00
2023-05-14T21:46:36.048Z,100.00
2023-05-14T21:49:03.186Z,100.00
2023-05-14T21:51:29.992Z,100.00
2023-05-14T21:53:56.501Z,100.00
2023-05-14T21:56:23.922Z,100.00
2023-05-14T21:58:50.472Z,100.00
2023-05-14T22:01:16.971Z,100.00
2023-05-14T22:03:43.603Z,100.00
2023-05-14T22:06:10.295Z,100.00
2023-05-14T22:08:36.852Z,100.00
2023-05-14T22:11:03.506Z,100.00
2023-05-14T22:13:30.178Z,100.00
2023-05-14T22:16:09.138Z,100.00
2023-05-14T22:18:39.071Z,100.00
2023-05-14T22:21:06.023Z,100.00
2023-05-14T22:23:32.658Z,100.00
2023-05-14T22:25:59.249Z,100.00
2023-05-14T22:28:25.926Z,100.00
2023-05-14T22:30:52.480Z,100.00
2023-05-14T22:33:19.490Z,100.00
2023-05-14T22:35:46.174Z,100.00
2023-05-14T22:38:13.775Z,100.00
2023-05-14T22:40:40.303Z,100.00
2023-05-14T22:43:06.890Z,100.00
2023-05-14T22:45:33.549Z,100.00
2023-05-14T22:48:00.216Z,100.00
2023-05-14T22:50:26.911Z,100.00
2023-05-14T22:52:53.475Z,100.00
2023-05-14T22:55:20.064Z,100.00
2023-05-14T22:57:46.625Z,100.00
2023-05-14T23:00:13.863Z,100.00
2023-05-14T23:25:23.760Z,100.00
2023-05-14T23:27:50.449Z,100.00
2023-05-14T23:30:17.010Z,100.00
2023-05-14T23:32:43.520Z,100.00
2023-05-14T23:35:10.335Z,100.00
2023-05-14T23:37:41.774Z,100.00
2023-05-14T23:40:09.757Z,100.00
2023-05-14T23:42:36.260Z,100.00
2023-05-14T23:45:02.908Z,100.00
2023-05-14T23:47:29.701Z,100.00
2023-05-14T23:49:56.436Z,100.00
2023-05-14T23:52:23.028Z,100.00
2023-05-14T23:54:49.555Z,100.00
2023-05-14T23:57:16.182Z,100.00
2023-05-14T23:59:42.744Z,100.00
